Time;durP1;ratioP1;P1;durP2;ratioP2;P2;SDS_P1;SDS_P2;PMS_P1;PMS_P2;Temp;Humidity;BMP_temperature;BMP_pressure;BME280_temperature;BME280_humidity;BME280_pressure;Samples;Min_cycle;Max_cycle;Signal;HPM_P1;HPM_P2
2023/08/03 00:01:57;;;;;;;;;;;17.10;77.10;;;;;;4120426;28;20073;-84
2023/08/03 00:04:16;;;;;;;;;;;17.10;77.20;;;;;;4119272;28;19920;-83
2023/08/03 00:06:35;;;;;;;;;;;17.10;77.30;;;;;;4105340;28;20040;-83
2023/08/03 00:08:54;;;;;;;;;;;17.10;77.60;;;;;;4121340;28;19937;-85
2023/08/03 00:11:13;;;;;;;;;;;17.10;77.70;;;;;;4112217;28;19929;-85
2023/08/03 00:13:33;;;;;;;;;;;17.10;77.40;;;;;;4107752;28;20010;-84
2023/08/03 00:15:52;;;;;;;;;;;17.10;77.40;;;;;;4119877;28;19929;-83
2023/08/03 00:18:11;;;;;;;;;;;17.10;78.10;;;;;;4109773;28;19928;-84
2023/08/03 00:20:31;;;;;;;;;;;17.00;77.30;;;;;;4136362;28;20450;-85
2023/08/03 00:22:49;;;;;;;;;;;17.00;77.90;;;;;;4137769;28;19916;-84
2023/08/03 00:25:09;;;;;;;;;;;17.00;77.10;;;;;;4137795;28;19929;-84
2023/08/03 00:27:28;;;;;;;;;;;17.00;77.60;;;;;;4137223;28;19932;-83
2023/08/03 00:29:47;;;;;;;;;;;16.90;77.30;;;;;;4139284;28;19983;-84
2023/08/03 00:32:06;;;;;;;;;;;16.90;77.30;;;;;;4139034;28;20053;-85
2023/08/03 00:34:26;;;;;;;;;;;16.90;77.00;;;;;;4136847;28;19928;-84
2023/08/03 00:36:45;;;;;;;;;;;16.90;77.00;;;;;;4135398;28;20024;-85
2023/08/03 00:39:04;;;;;;;;;;;16.80;77.10;;;;;;4138166;28;19920;-86
2023/08/03 00:41:23;;;;;;;;;;;16.80;77.30;;;;;;4133957;28;19929;-86
2023/08/03 00:43:43;;;;;;;;;;;16.80;77.50;;;;;;4150483;28;20100;-85
2023/08/03 00:46:02;;;;;;;;;;;16.80;78.30;;;;;;4148705;28;20391;-84
2023/08/03 00:48:21;;;;;;;;;;;16.70;77.90;;;;;;4151282;28;20758;-85
2023/08/03 00:50:40;;;;;;;;;;;16.70;77.60;;;;;;4138344;28;19978;-85
2023/08/03 00:52:59;;;;;;;;;;;16.70;78.20;;;;;;4137389;28;19980;-82
2023/08/03 00:55:19;;;;;;;;;;;16.70;77.80;;;;;;4136824;28;19999;-83
2023/08/03 00:57:38;;;;;;;;;;;16.70;78.10;;;;;;4138449;28;19925;-84
2023/08/03 00:59:58;;;;;;;;;;;16.70;78.20;;;;;;4137053;28;19928;-84
2023/08/03 01:02:17;;;;;;;;;;;16.70;78.70;;;;;;4137124;28;20287;-84
2023/08/03 01:04:37;;;;;;;;;;;16.70;78.00;;;;;;4137607;28;20013;-84
2023/08/03 01:06:56;;;;;;;;;;;16.60;77.90;;;;;;4137679;28;20474;-84
2023/08/03 01:09:15;;;;;;;;;;;16.60;77.90;;;;;;4137378;28;20291;-83
2023/08/03 01:11:35;;;;;;;;;;;16.50;78.10;;;;;;4136353;28;19964;-82
2023/08/03 01:13:55;;;;;;;;;;;16.60;78.10;;;;;;4138019;28;19929;-83
2023/08/03 01:16:15;;;;;;;;;;;16.50;78.60;;;;;;4134683;28;19948;-83
2023/08/03 01:18:34;;;;;;;;;;;16.50;78.60;;;;;;4139580;28;19978;-84
2023/08/03 01:20:53;;;;;;;;;;;16.40;78.40;;;;;;4138189;28;19979;-83
2023/08/03 01:23:12;;;;;;;;;;;16.40;78.40;;;;;;4135880;28;19928;-83
2023/08/03 01:25:32;;;;;;;;;;;16.40;77.80;;;;;;4135984;28;20432;-83
2023/08/03 01:27:51;;;;;;;;;;;16.30;77.90;;;;;;4138572;28;19976;-83
2023/08/03 01:30:10;;;;;;;;;;;16.40;78.60;;;;;;4138912;28;19952;-84
2023/08/03 01:32:30;;;;;;;;;;;16.30;78.20;;;;;;4137449;28;20017;-83
2023/08/03 01:34:49;;;;;;;;;;;16.30;78.00;;;;;;4137293;28;20382;-84
2023/08/03 01:37:08;;;;;;;;;;;16.30;78.10;;;;;;4135541;28;22279;-84
2023/08/03 01:39:28;;;;;;;;;;;16.20;78.10;;;;;;4136733;28;19928;-83
2023/08/03 01:41:47;;;;;;;;;;;16.30;78.10;;;;;;4138595;28;20425;-83
2023/08/03 01:44:23;;;;;;;;;;;16.20;78.40;;;;;;4138648;28;20488;-83
2023/08/03 01:46:42;;;;;;;;;;;16.20;78.10;;;;;;4135862;28;19936;-83
2023/08/03 01:49:02;;;;;;;;;;;16.20;78.10;;;;;;4137700;28;19928;-85
2023/08/03 01:51:21;;;;;;;;;;;16.10;78.90;;;;;;4137350;28;19983;-83
2023/08/03 01:53:40;;;;;;;;;;;16.10;78.00;;;;;;4151536;28;20614;-85
2023/08/03 01:55:59;;;;;;;;;;;16.10;78.10;;;;;;4137451;28;19928;-85
2023/08/03 01:58:19;;;;;;;;;;;16.10;78.00;;;;;;4151333;28;19955;-84
2023/08/03 02:00:38;;;;;;;;;;;16.20;78.70;;;;;;4137636;28;19972;-85
2023/08/03 02:02:57;;;;;;;;;;;16.10;78.20;;;;;;4137744;28;19928;-83
2023/08/03 02:05:17;;;;;;;;;;;16.10;78.00;;;;;;4137553;28;20265;-84
2023/08/03 02:07:44;;;;;;;;;;;16.20;78.10;;;;;;4136851;28;19948;-84
2023/08/03 02:10:03;;;;;;;;;;;16.10;78.00;;;;;;4151770;28;19936;-84
2023/08/03 02:12:22;;;;;;;;;;;16.10;78.00;;;;;;4155745;28;19932;-84
2023/08/03 02:14:41;;;;;;;;;;;16.10;78.90;;;;;;4137814;28;19928;-84
2023/08/03 02:17:00;;;;;;;;;;;16.20;78.00;;;;;;4133856;28;21729;-84
2023/08/03 02:19:20;;;;;;;;;;;16.10;77.90;;;;;;4129496;28;20081;-83
2023/08/03 02:21:39;;;;;;;;;;;16.20;78.20;;;;;;4136337;28;19924;-84
2023/08/03 02:23:58;;;;;;;;;;;16.10;77.90;;;;;;4137788;28;20295;-83
2023/08/03 02:26:18;;;;;;;;;;;16.10;78.00;;;;;;4137436;28;19988;-83
2023/08/03 02:28:37;;;;;;;;;;;16.10;78.70;;;;;;4135013;28;19929;-84
2023/08/03 02:30:57;;;;;;;;;;;16.10;78.40;;;;;;4134812;28;19928;-84
2023/08/03 02:33:16;;;;;;;;;;;16.10;77.80;;;;;;4133639;28;20331;-84
2023/08/03 02:35:39;;;;;;;;;;;16.20;78.20;;;;;;4134503;28;19972;-84
2023/08/03 02:37:58;;;;;;;;;;;16.10;78.10;;;;;;4137259;28;20338;-83
2023/08/03 02:40:17;;;;;;;;;;;16.00;78.10;;;;;;4135076;28;20009;-84
2023/08/03 02:42:36;;;;;;;;;;;16.00;78.10;;;;;;4134749;28;20142;-83
2023/08/03 02:44:55;;;;;;;;;;;16.00;78.10;;;;;;4135952;28;19928;-84
2023/08/03 02:47:15;;;;;;;;;;;16.00;78.10;;;;;;4148748;28;19932;-84
2023/08/03 02:49:34;;;;;;;;;;;16.00;78.90;;;;;;4137572;28;19921;-83
2023/08/03 02:51:53;;;;;;;;;;;16.00;78.20;;;;;;4136141;28;19924;-84
2023/08/03 02:54:13;;;;;;;;;;;16.00;78.20;;;;;;4133866;28;19988;-83
2023/08/03 02:56:32;;;;;;;;;;;16.10;78.30;;;;;;4136503;28;19928;-84
2023/08/03 02:58:51;;;;;;;;;;;16.10;78.30;;;;;;4144080;28;19976;-83
2023/08/03 03:01:11;;;;;;;;;;;16.10;79.00;;;;;;4134668;28;20448;-84
2023/08/03 03:03:30;;;;;;;;;;;16.10;79.10;;;;;;4136528;28;19928;-84
2023/08/03 03:05:49;;;;;;;;;;;16.10;79.20;;;;;;4138660;28;19928;-84
2023/08/03 03:08:08;;;;;;;;;;;16.10;79.10;;;;;;4140107;28;21085;-83
2023/08/03 03:10:28;;;;;;;;;;;16.10;78.30;;;;;;4137280;28;19944;-83
2023/08/03 03:12:47;;;;;;;;;;;16.10;78.30;;;;;;4140219;28;19928;-84
2023/08/03 03:15:07;;;;;;;;;;;16.10;78.30;;;;;;4141044;28;19932;-84
2023/08/03 03:17:26;;;;;;;;;;;16.10;78.30;;;;;;4154540;28;20010;-84
2023/08/03 03:19:45;;;;;;;;;;;16.10;78.30;;;;;;4141958;28;20016;-84
2023/08/03 03:22:05;;;;;;;;;;;16.20;78.30;;;;;;4142837;28;19932;-84
2023/08/03 03:24:24;;;;;;;;;;;16.10;78.30;;;;;;4135487;28;20457;-83
2023/08/03 03:26:43;;;;;;;;;;;16.20;78.30;;;;;;4135806;28;19931;-83
2023/08/03 03:29:02;;;;;;;;;;;16.20;78.30;;;;;;4138312;28;19933;-85
2023/08/03 03:31:21;;;;;;;;;;;16.20;79.10;;;;;;4138109;28;20497;-84
2023/08/03 03:33:41;;;;;;;;;;;16.20;79.20;;;;;;4137333;28;19928;-84
2023/08/03 03:36:00;;;;;;;;;;;16.20;79.50;;;;;;4148663;28;19952;-83
2023/08/03 03:38:20;;;;;;;;;;;16.20;78.30;;;;;;4137944;28;19928;-84
2023/08/03 03:40:39;;;;;;;;;;;16.20;78.20;;;;;;4138114;28;19928;-84
2023/08/03 03:42:58;;;;;;;;;;;16.20;78.10;;;;;;4135890;28;20483;-84
2023/08/03 03:45:17;;;;;;;;;;;16.20;78.10;;;;;;4135469;28;20088;-85
2023/08/03 03:47:36;;;;;;;;;;;16.10;77.90;;;;;;4135939;28;19932;-84
2023/08/03 03:49:56;;;;;;;;;;;16.10;77.90;;;;;;4146887;28;19996;-84
2023/08/03 03:52:15;;;;;;;;;;;16.10;77.90;;;;;;4136806;28;19985;-84
2023/08/03 03:54:34;;;;;;;;;;;16.20;78.00;;;;;;4136910;28;19932;-84
2023/08/03 03:56:55;;;;;;;;;;;16.10;77.90;;;;;;4134552;28;19951;-84
2023/08/03 03:59:14;;;;;;;;;;;16.10;78.70;;;;;;4134818;28;19932;-84
2023/08/03 04:01:33;;;;;;;;;;;16.10;77.90;;;;;;4136350;28;19940;-84
2023/08/03 04:03:52;;;;;;;;;;;16.10;78.10;;;;;;4136181;28;19925;-84
2023/08/03 04:06:12;;;;;;;;;;;16.10;78.20;;;;;;4134836;28;20430;-83
2023/08/03 04:08:31;;;;;;;;;;;16.00;78.00;;;;;;4136029;28;19995;-84
2023/08/03 04:10:50;;;;;;;;;;;16.00;78.00;;;;;;4146071;28;20008;-84
2023/08/03 04:13:10;;;;;;;;;;;16.10;78.00;;;;;;4134605;28;19928;-83
2023/08/03 04:15:29;;;;;;;;;;;16.00;78.00;;;;;;4132279;28;19948;-84
2023/08/03 04:17:48;;;;;;;;;;;16.00;78.30;;;;;;4137390;28;20015;-84
2023/08/03 04:20:08;;;;;;;;;;;16.00;78.30;;;;;;4136584;28;19952;-85
2023/08/03 04:22:27;;;;;;;;;;;16.00;78.50;;;;;;4151730;28;19983;-83
2023/08/03 04:24:46;;;;;;;;;;;16.00;78.50;;;;;;4137755;28;19929;-84
2023/08/03 04:27:05;;;;;;;;;;;16.00;78.40;;;;;;4138066;28;19936;-84
2023/08/03 04:29:24;;;;;;;;;;;16.00;78.60;;;;;;4137021;28;19944;-84
2023/08/03 04:31:44;;;;;;;;;;;16.00;79.10;;;;;;4136570;28;19924;-84
2023/08/03 04:34:03;;;;;;;;;;;16.00;78.30;;;;;;4139516;28;20040;-84
2023/08/03 04:36:22;;;;;;;;;;;16.00;78.60;;;;;;4133783;28;20561;-83
2023/08/03 04:38:41;;;;;;;;;;;16.00;78.50;;;;;;4134004;28;20390;-85
2023/08/03 04:41:01;;;;;;;;;;;15.90;78.40;;;;;;4141238;28;21170;-84
2023/08/03 04:43:20;;;;;;;;;;;15.90;78.40;;;;;;4133108;28;20622;-84
2023/08/03 04:45:39;;;;;;;;;;;16.00;78.50;;;;;;4135361;28;20552;-85
2023/08/03 04:47:59;;;;;;;;;;;15.90;78.50;;;;;;4133189;28;20156;-84
2023/08/03 04:50:20;;;;;;;;;;;16.00;78.50;;;;;;4138188;28;20391;-84
2023/08/03 04:52:39;;;;;;;;;;;16.00;79.30;;;;;;4137622;28;19927;-84
2023/08/03 04:54:59;;;;;;;;;;;16.00;78.50;;;;;;4139272;28;19932;-84
2023/08/03 04:57:18;;;;;;;;;;;16.00;78.60;;;;;;4155612;28;19928;-83
2023/08/03 04:59:37;;;;;;;;;;;16.00;78.60;;;;;;4147332;28;19945;-83
2023/08/03 05:01:56;;;;;;;;;;;16.00;78.60;;;;;;4136684;28;19929;-83
2023/08/03 05:04:16;;;;;;;;;;;16.10;78.70;;;;;;4136843;28;20171;-84
2023/08/03 05:06:35;;;;;;;;;;;16.10;78.70;;;;;;4135109;28;19983;-83
2023/08/03 05:08:54;;;;;;;;;;;16.10;78.70;;;;;;4136252;28;19929;-83
2023/08/03 05:11:14;;;;;;;;;;;16.10;78.70;;;;;;4131317;28;19928;-83
2023/08/03 05:13:33;;;;;;;;;;;16.10;79.60;;;;;;4137930;28;21015;-83
2023/08/03 05:15:52;;;;;;;;;;;16.10;79.30;;;;;;4136523;28;19928;-82
2023/08/03 05:18:12;;;;;;;;;;;16.10;79.20;;;;;;4136868;28;20353;-83
2023/08/03 05:20:31;;;;;;;;;;;16.20;79.20;;;;;;4133352;28;19951;-83
2023/08/03 05:22:50;;;;;;;;;;;16.20;79.30;;;;;;4136333;28;19920;-83
2023/08/03 05:27:17;;;;;;;;;;;16.30;79.80;;;;;;4134071;28;19952;-84
2023/08/03 05:29:36;;;;;;;;;;;16.30;79.00;;;;;;4139947;28;19945;-84
2023/08/03 05:31:55;;;;;;;;;;;16.40;80.30;;;;;;4139724;28;20380;-84
2023/08/03 05:34:15;;;;;;;;;;;16.30;79.40;;;;;;4140843;28;19979;-84
2023/08/03 05:36:34;;;;;;;;;;;16.30;79.40;;;;;;4140893;28;19997;-86
2023/08/03 05:38:53;;;;;;;;;;;16.40;79.40;;;;;;4138491;28;19956;-84
2023/08/03 05:41:15;;;;;;;;;;;16.50;79.40;;;;;;4141765;28;19960;-85
2023/08/03 05:43:34;;;;;;;;;;;16.50;79.30;;;;;;4137893;28;20229;-84
2023/08/03 05:45:59;;;;;;;;;;;16.50;79.30;;;;;;4138196;28;19975;-84
2023/08/03 05:48:19;;;;;;;;;;;16.50;79.40;;;;;;4141385;28;19936;-85
2023/08/03 05:50:40;;;;;;;;;;;16.50;80.00;;;;;;4144877;28;19924;-85
2023/08/03 05:52:59;;;;;;;;;;;16.50;79.20;;;;;;4147795;28;19928;-84
2023/08/03 05:55:18;;;;;;;;;;;16.60;79.30;;;;;;4150818;28;19917;-84
2023/08/03 05:57:38;;;;;;;;;;;16.60;79.30;;;;;;4146336;28;20544;-84
2023/08/03 05:59:57;;;;;;;;;;;16.60;79.60;;;;;;4143324;28;19924;-85
2023/08/03 06:02:24;;;;;;;;;;;16.70;79.60;;;;;;4140215;28;19920;-84
2023/08/03 06:04:43;;;;;;;;;;;16.70;79.40;;;;;;4142863;28;19967;-85
2023/08/03 06:07:04;;;;;;;;;;;16.70;79.20;;;;;;4142479;28;20048;-85
2023/08/03 06:09:24;;;;;;;;;;;16.70;79.90;;;;;;4141528;28;19948;-85
2023/08/03 06:11:43;;;;;;;;;;;16.80;79.50;;;;;;4139598;28;19941;-85
2023/08/03 06:14:03;;;;;;;;;;;16.80;79.20;;;;;;4143626;28;19921;-85
2023/08/03 06:16:26;;;;;;;;;;;16.80;79.20;;;;;;4139490;28;19971;-84
2023/08/03 06:18:54;;;;;;;;;;;16.90;80.00;;;;;;4142192;28;19929;-85
2023/08/03 06:21:14;;;;;;;;;;;16.90;79.30;;;;;;4141087;28;19929;-84
2023/08/03 06:23:33;;;;;;;;;;;17.00;79.40;;;;;;4140554;28;19983;-84
2023/08/03 06:25:54;;;;;;;;;;;16.90;79.50;;;;;;4137900;28;19966;-84
2023/08/03 06:28:14;;;;;;;;;;;17.00;79.50;;;;;;4138621;28;19931;-85
2023/08/03 06:30:34;;;;;;;;;;;17.10;79.80;;;;;;4141303;28;20062;-84
2023/08/03 06:32:54;;;;;;;;;;;17.20;80.70;;;;;;4141291;28;19928;-84
2023/08/03 06:35:34;;;;;;;;;;;17.10;79.70;;;;;;4139250;28;19928;-84
2023/08/03 06:37:53;;;;;;;;;;;17.20;80.40;;;;;;4139293;28;19972;-85
2023/08/03 06:40:13;;;;;;;;;;;17.20;79.80;;;;;;4140105;28;19920;-84
2023/08/03 06:42:32;;;;;;;;;;;17.30;79.80;;;;;;4143009;28;19924;-85
2023/08/03 06:44:53;;;;;;;;;;;17.30;79.90;;;;;;4139420;28;20016;-84
2023/08/03 06:47:12;;;;;;;;;;;17.50;79.90;;;;;;4140854;28;19932;-84
2023/08/03 06:49:31;;;;;;;;;;;17.50;79.80;;;;;;4142598;28;19924;-84
2023/08/03 06:51:51;;;;;;;;;;;17.50;79.80;;;;;;4140330;28;19924;-84
2023/08/03 06:54:10;;;;;;;;;;;17.60;79.90;;;;;;4139416;28;19956;-84
2023/08/03 06:56:31;;;;;;;;;;;17.60;79.90;;;;;;4140240;28;19928;-85
2023/08/03 06:58:50;;;;;;;;;;;17.70;80.60;;;;;;4144719;28;19924;-85
2023/08/03 07:01:10;;;;;;;;;;;17.70;79.80;;;;;;4144020;28;19924;-85
2023/08/03 07:03:29;;;;;;;;;;;17.80;79.80;;;;;;4138377;28;19975;-85
2023/08/03 07:05:49;;;;;;;;;;;17.90;80.50;;;;;;4143744;28;19921;-84
2023/08/03 07:08:08;;;;;;;;;;;17.90;79.60;;;;;;4133476;28;20395;-85
2023/08/03 07:10:27;;;;;;;;;;;17.90;79.60;;;;;;4137928;28;19928;-84
2023/08/03 07:12:47;;;;;;;;;;;18.00;79.60;;;;;;4142239;28;19958;-84
2023/08/03 07:15:06;;;;;;;;;;;18.00;79.40;;;;;;4144985;28;19955;-85
2023/08/03 07:17:25;;;;;;;;;;;18.00;79.50;;;;;;4139175;28;19935;-85
2023/08/03 07:19:50;;;;;;;;;;;18.00;79.50;;;;;;4141857;28;19928;-86
2023/08/03 07:22:09;;;;;;;;;;;18.00;79.10;;;;;;4136393;28;19928;-85
2023/08/03 07:24:31;;;;;;;;;;;18.00;78.90;;;;;;4137486;28;19920;-85
2023/08/03 07:26:50;;;;;;;;;;;18.00;78.80;;;;;;4132676;28;20481;-85
2023/08/03 07:29:10;;;;;;;;;;;18.10;78.80;;;;;;4135470;28;20434;-85
2023/08/03 07:31:30;;;;;;;;;;;17.90;78.50;;;;;;4134696;28;19928;-85
2023/08/03 07:33:49;;;;;;;;;;;18.00;78.40;;;;;;4136896;28;20001;-85
2023/08/03 07:36:14;;;;;;;;;;;18.00;78.50;;;;;;4138291;28;20060;-85
2023/08/03 07:38:33;;;;;;;;;;;18.00;79.10;;;;;;4134346;28;19928;-84
2023/08/03 07:40:53;;;;;;;;;;;18.00;78.40;;;;;;4134131;28;20417;-85
2023/08/03 07:43:12;;;;;;;;;;;18.00;78.40;;;;;;4135661;28;20462;-85
2023/08/03 07:45:31;;;;;;;;;;;18.00;78.30;;;;;;4137474;28;19928;-84
2023/08/03 07:47:50;;;;;;;;;;;18.00;79.00;;;;;;4132673;28;19944;-84
2023/08/03 07:50:10;;;;;;;;;;;18.00;78.20;;;;;;4131421;28;19976;-85
2023/08/03 07:52:30;;;;;;;;;;;18.00;79.00;;;;;;4131612;28;19945;-85
2023/08/03 07:54:49;;;;;;;;;;;18.00;78.50;;;;;;4134435;28;19931;-84
2023/08/03 07:57:11;;;;;;;;;;;18.00;78.70;;;;;;4136644;28;19928;-83
2023/08/03 07:59:30;;;;;;;;;;;18.00;78.60;;;;;;4139456;28;19924;-83
2023/08/03 08:01:50;;;;;;;;;;;18.10;78.80;;;;;;4139744;28;19920;-85
2023/08/03 08:04:09;;;;;;;;;;;18.10;78.70;;;;;;4137393;28;19920;-85
2023/08/03 08:06:29;;;;;;;;;;;18.20;78.80;;;;;;4137093;28;19964;-86
2023/08/03 08:08:49;;;;;;;;;;;18.30;79.10;;;;;;4137220;28;19928;-86
2023/08/03 08:11:09;;;;;;;;;;;18.40;79.00;;;;;;4141138;28;19928;-86
2023/08/03 08:13:29;;;;;;;;;;;18.40;79.10;;;;;;4140313;28;19979;-87
2023/08/03 08:15:48;;;;;;;;;;;18.50;78.90;;;;;;4140037;28;20681;-85
2023/08/03 08:18:07;;;;;;;;;;;18.50;78.60;;;;;;4137372;28;19941;-85
2023/08/03 08:20:26;;;;;;;;;;;18.50;78.20;;;;;;4137338;28;19956;-85
2023/08/03 08:22:46;;;;;;;;;;;18.60;78.30;;;;;;4135933;28;19975;-85
2023/08/03 08:25:05;;;;;;;;;;;18.70;78.30;;;;;;4135745;28;20482;-85
2023/08/03 08:27:24;;;;;;;;;;;18.80;79.30;;;;;;4136169;28;20098;-85
2023/08/03 08:29:47;;;;;;;;;;;18.70;79.10;;;;;;4141905;28;19924;-84
2023/08/03 08:32:06;;;;;;;;;;;18.80;78.60;;;;;;4142970;28;19924;-85
2023/08/03 08:34:25;;;;;;;;;;;18.80;79.40;;;;;;4140211;28;20319;-89
2023/08/03 08:36:44;;;;;;;;;;;19.00;78.80;;;;;;4154175;28;19963;-85
2023/08/03 08:39:04;;;;;;;;;;;19.10;78.90;;;;;;4151224;28;19972;-86
2023/08/03 08:41:23;;;;;;;;;;;19.20;79.00;;;;;;4141987;28;19951;-84
2023/08/03 08:43:42;;;;;;;;;;;19.20;79.10;;;;;;4142597;28;19936;-85
2023/08/03 08:46:02;;;;;;;;;;;19.40;79.80;;;;;;4138257;28;19991;-84
2023/08/03 08:48:22;;;;;;;;;;;19.60;79.60;;;;;;4139478;28;19929;-84
2023/08/03 08:50:42;;;;;;;;;;;19.70;79.20;;;;;;4140320;28;20028;-85
2023/08/03 08:53:01;;;;;;;;;;;19.80;79.30;;;;;;4138911;28;19923;-84
2023/08/03 08:55:23;;;;;;;;;;;19.90;78.90;;;;;;4139023;28;20370;-85
2023/08/03 08:57:42;;;;;;;;;;;20.10;78.80;;;;;;4140307;28;19920;-84
2023/08/03 09:00:05;;;;;;;;;;;20.20;78.20;;;;;;4139367;28;19963;-86
2023/08/03 09:02:24;;;;;;;;;;;20.30;77.80;;;;;;4139328;28;20308;-85
2023/08/03 09:04:43;;;;;;;;;;;20.40;77.50;;;;;;4139375;28;19924;-85
2023/08/03 09:07:03;;;;;;;;;;;20.50;77.10;;;;;;4138366;28;20286;-84
2023/08/03 09:09:32;;;;;;;;;;;20.60;77.60;;;;;;4141486;28;20051;-85
2023/08/03 09:11:51;;;;;;;;;;;20.60;76.20;;;;;;4139624;28;19924;-84
2023/08/03 09:14:10;;;;;;;;;;;20.80;75.90;;;;;;4156748;28;19924;-84
2023/08/03 09:16:29;;;;;;;;;;;20.80;75.80;;;;;;4141569;28;19952;-84
2023/08/03 09:18:49;;;;;;;;;;;20.90;76.20;;;;;;4150888;28;20334;-85
2023/08/03 09:21:11;;;;;;;;;;;20.90;75.30;;;;;;4137621;28;20037;-85
2023/08/03 09:23:31;;;;;;;;;;;21.00;74.80;;;;;;4135801;28;19933;-84
2023/08/03 09:25:50;;;;;;;;;;;21.00;74.50;;;;;;4143556;28;19965;-85
2023/08/03 09:28:10;;;;;;;;;;;21.10;73.80;;;;;;4137776;28;19929;-85
2023/08/03 09:30:29;;;;;;;;;;;21.10;73.60;;;;;;4144001;28;19981;-85
2023/08/03 09:32:48;;;;;;;;;;;21.20;74.10;;;;;;4143142;28;20021;-86
2023/08/03 09:37:27;;;;;;;;;;;21.20;71.90;;;;;;4247450;22;19929;-86
2023/08/03 09:39:53;;;;;;;;;;;21.20;71.50;;;;;;4140305;28;19999;-85
2023/08/03 09:42:13;;;;;;;;;;;21.10;71.40;;;;;;4153716;28;19927;-84
2023/08/03 09:44:36;;;;;;;;;;;21.10;71.70;;;;;;4140810;28;19944;-85
2023/08/03 09:46:56;;;;;;;;;;;21.10;70.50;;;;;;4124431;28;20606;-85
2023/08/03 09:49:15;;;;;;;;;;;21.00;70.50;;;;;;4122417;28;20016;-84
2023/08/03 09:51:36;;;;;;;;;;;21.00;70.60;;;;;;4120797;28;19975;-86
2023/08/03 09:54:03;;;;;;;;;;;21.00;70.50;;;;;;4130586;28;19929;-85
2023/08/03 09:56:24;;;;;;;;;;;21.00;70.90;;;;;;4118893;28;19941;-84
2023/08/03 09:59:04;;;;;;;;;;;21.00;71.10;;;;;;4122504;28;20999;-86
2023/08/03 10:01:24;;;;;;;;;;;21.00;70.70;;;;;;4122685;28;20402;-86
2023/08/03 10:03:44;;;;;;;;;;;20.90;70.10;;;;;;4133394;28;20457;-85
2023/08/03 10:06:07;;;;;;;;;;;20.90;70.10;;;;;;4122711;28;19952;-87
2023/08/03 10:08:32;;;;;;;;;;;20.90;70.00;;;;;;4145712;28;19988;-85
2023/08/03 10:10:53;;;;;;;;;;;20.80;69.90;;;;;;4129421;28;20032;-85
2023/08/03 10:13:12;;;;;;;;;;;20.70;69.70;;;;;;4133659;28;19985;-84
2023/08/03 10:15:32;;;;;;;;;;;20.80;69.80;;;;;;4128079;28;21883;-86
2023/08/03 10:17:52;;;;;;;;;;;20.80;70.10;;;;;;4141009;28;20004;-86
2023/08/03 10:20:12;;;;;;;;;;;20.80;70.10;;;;;;4139387;28;19936;-87
2023/08/03 10:22:31;;;;;;;;;;;20.80;70.10;;;;;;4136261;28;19933;-88
2023/08/03 10:25:09;;;;;;;;;;;20.80;70.30;;;;;;4140331;28;19920;-86
2023/08/03 10:27:29;;;;;;;;;;;20.80;70.50;;;;;;4144148;28;19928;-87
2023/08/03 10:29:51;;;;;;;;;;;20.80;71.30;;;;;;4142080;28;20017;-86
2023/08/03 10:32:17;;;;;;;;;;;20.90;70.50;;;;;;4138606;28;20021;-89
2023/08/03 10:34:39;;;;;;;;;;;20.90;70.30;;;;;;4150544;28;19916;-87
2023/08/03 10:36:58;;;;;;;;;;;20.90;70.20;;;;;;4137694;28;19952;-85
2023/08/03 10:39:37;;;;;;;;;;;20.90;70.00;;;;;;4136620;28;19948;-86
2023/08/03 10:42:16;;;;;;;;;;;21.00;69.60;;;;;;4140735;28;20440;-86
2023/08/03 10:44:35;;;;;;;;;;;21.00;69.80;;;;;;4137492;28;19917;-84
2023/08/03 10:47:01;;;;;;;;;;;21.20;70.40;;;;;;4142798;28;19940;-86
2023/08/03 10:49:23;;;;;;;;;;;21.20;70.80;;;;;;4682897;22;19929;-86
2023/08/03 10:51:42;;;;;;;;;;;21.30;70.80;;;;;;4165399;28;19933;-84
2023/08/03 10:54:01;;;;;;;;;;;21.40;70.60;;;;;;4159371;28;19928;-85
2023/08/03 10:56:21;;;;;;;;;;;21.40;68.20;;;;;;4145940;28;19935;-85
2023/08/03 10:58:43;;;;;;;;;;;21.60;69.30;;;;;;4139459;28;19968;-86
2023/08/03 11:01:02;;;;;;;;;;;21.70;70.00;;;;;;4137114;28;20029;-86
2023/08/03 11:03:21;;;;;;;;;;;21.70;69.90;;;;;;4144569;28;20009;-85
2023/08/03 11:05:40;;;;;;;;;;;21.80;69.50;;;;;;4134267;28;20291;-87
2023/08/03 11:08:15;;;;;;;;;;;21.90;69.00;;;;;;4139558;28;19967;-87
2023/08/03 11:10:34;;;;;;;;;;;21.90;68.70;;;;;;4139334;28;19989;-87
2023/08/03 11:12:54;;;;;;;;;;;21.90;68.00;;;;;;4139836;28;19956;-85
2023/08/03 11:15:17;;;;;;;;;;;21.90;67.60;;;;;;4147726;28;19989;-86
2023/08/03 11:17:37;;;;;;;;;;;21.90;67.20;;;;;;4142953;28;20508;-87
2023/08/03 11:19:57;;;;;;;;;;;21.90;66.60;;;;;;4146696;28;19960;-83
2023/08/03 11:22:16;;;;;;;;;;;21.90;66.80;;;;;;4161213;28;19933;-85
2023/08/03 11:24:35;;;;;;;;;;;21.90;66.90;;;;;;4159578;28;19937;-86
2023/08/03 11:26:55;;;;;;;;;;;21.90;66.90;;;;;;4160308;28;19994;-86
2023/08/03 11:29:14;;;;;;;;;;;21.80;66.30;;;;;;4160899;28;19913;-88
2023/08/03 11:31:33;;;;;;;;;;;21.80;66.70;;;;;;4161157;28;19913;-86
2023/08/03 11:33:54;;;;;;;;;;;21.80;65.90;;;;;;4155401;28;19944;-86
2023/08/03 11:36:14;;;;;;;;;;;21.80;65.90;;;;;;4176652;23;19940;-84
2023/08/03 11:38:33;;;;;;;;;;;21.80;66.20;;;;;;4138828;28;19928;-86
2023/08/03 11:40:53;;;;;;;;;;;21.80;65.90;;;;;;4140447;28;19924;-86
2023/08/03 11:43:12;;;;;;;;;;;21.90;65.60;;;;;;4141513;28;19956;-85
2023/08/03 11:45:34;;;;;;;;;;;21.90;65.20;;;;;;4133520;28;19925;-86
2023/08/03 11:47:54;;;;;;;;;;;21.90;64.90;;;;;;4119818;28;19932;-85
2023/08/03 11:50:17;;;;;;;;;;;21.90;66.00;;;;;;4122393;28;19971;-86
2023/08/03 11:52:37;;;;;;;;;;;21.90;65.30;;;;;;4119910;28;20391;-86
2023/08/03 11:54:56;;;;;;;;;;;22.00;65.50;;;;;;4121940;28;19921;-85
2023/08/03 11:59:53;;;;;;;;;;;22.00;64.80;;;;;;4120462;28;20003;-84
2023/08/03 12:02:12;;;;;;;;;;;22.10;63.40;;;;;;4131851;28;19940;-86
2023/08/03 12:04:32;;;;;;;;;;;22.00;63.70;;;;;;4124860;28;19932;-86
2023/08/03 12:06:52;;;;;;;;;;;22.00;63.60;;;;;;4119540;28;19992;-85
2023/08/03 12:09:16;;;;;;;;;;;21.90;63.90;;;;;;4114928;28;19933;-85
2023/08/03 12:11:35;;;;;;;;;;;21.90;63.40;;;;;;4115858;28;19997;-86
2023/08/03 12:13:54;;;;;;;;;;;21.80;63.50;;;;;;4118886;28;19944;-86
2023/08/03 12:16:14;;;;;;;;;;;21.80;63.50;;;;;;4121333;28;19993;-83
2023/08/03 12:18:39;;;;;;;;;;;21.70;63.60;;;;;;4117633;28;19995;-85
2023/08/03 12:20:58;;;;;;;;;;;21.70;63.60;;;;;;4122294;28;19968;-83
2023/08/03 12:23:18;;;;;;;;;;;21.60;64.10;;;;;;4118786;28;20050;-85
2023/08/03 12:25:37;;;;;;;;;;;21.60;64.50;;;;;;4136906;28;19925;-82
2023/08/03 12:27:57;;;;;;;;;;;21.60;64.90;;;;;;4124033;28;19929;-83
2023/08/03 12:30:16;;;;;;;;;;;21.60;64.70;;;;;;4121955;28;19925;-82
2023/08/03 12:32:35;;;;;;;;;;;21.60;64.60;;;;;;4121691;28;19932;-84
2023/08/03 12:34:54;;;;;;;;;;;21.50;65.40;;;;;;4133814;28;19996;-83
2023/08/03 12:37:14;;;;;;;;;;;21.60;64.70;;;;;;4121845;28;19932;-83
2023/08/03 12:39:33;;;;;;;;;;;21.50;64.70;;;;;;4122195;28;19925;-86
2023/08/03 12:41:52;;;;;;;;;;;21.40;64.60;;;;;;4124309;28;20040;-85
2023/08/03 12:44:12;;;;;;;;;;;21.40;65.50;;;;;;4125297;28;19921;-85
2023/08/03 12:46:31;;;;;;;;;;;21.30;65.40;;;;;;4125453;28;20162;-86
2023/08/03 12:48:50;;;;;;;;;;;21.30;65.30;;;;;;4120902;28;20639;-85
2023/08/03 12:51:09;;;;;;;;;;;21.30;64.70;;;;;;4120951;28;19921;-84
2023/08/03 12:53:30;;;;;;;;;;;21.30;64.90;;;;;;4124276;28;19936;-83
2023/08/03 12:55:49;;;;;;;;;;;21.20;65.20;;;;;;4122243;28;19926;-85
2023/08/03 12:58:09;;;;;;;;;;;21.20;65.50;;;;;;4120346;28;19920;-84
2023/08/03 13:00:29;;;;;;;;;;;21.20;65.70;;;;;;4118316;28;19925;-85
2023/08/03 13:02:48;;;;;;;;;;;21.20;66.00;;;;;;4119865;28;19948;-85
2023/08/03 13:05:07;;;;;;;;;;;21.20;66.10;;;;;;4119531;28;19928;-85
2023/08/03 13:07:27;;;;;;;;;;;21.20;66.40;;;;;;4121254;28;19952;-84
2023/08/03 13:09:46;;;;;;;;;;;21.30;66.50;;;;;;4118698;28;19929;-84
2023/08/03 13:12:06;;;;;;;;;;;21.40;66.80;;;;;;4109667;28;19929;-84
2023/08/03 13:14:25;;;;;;;;;;;21.40;67.90;;;;;;4120238;28;19929;-84
2023/08/03 13:16:44;;;;;;;;;;;21.50;67.40;;;;;;4135485;28;19921;-84
2023/08/03 13:19:04;;;;;;;;;;;21.50;66.60;;;;;;4123698;28;19940;-87
2023/08/03 13:21:23;;;;;;;;;;;21.60;66.60;;;;;;4118792;28;19956;-84
2023/08/03 13:23:42;;;;;;;;;;;21.70;66.30;;;;;;4123903;28;20025;-83
2023/08/03 13:26:02;;;;;;;;;;;21.70;65.70;;;;;;4123939;28;20283;-85
2023/08/03 13:28:21;;;;;;;;;;;21.70;65.30;;;;;;4116926;28;20021;-85
2023/08/03 13:30:40;;;;;;;;;;;21.70;64.90;;;;;;4135353;28;19927;-85
2023/08/03 13:33:00;;;;;;;;;;;21.70;64.20;;;;;;4123502;28;20013;-84
2023/08/03 13:35:19;;;;;;;;;;;21.70;64.10;;;;;;4119221;28;21001;-84
2023/08/03 13:37:39;;;;;;;;;;;21.80;64.20;;;;;;4120285;28;19925;-84
2023/08/03 13:39:58;;;;;;;;;;;21.70;64.20;;;;;;4121889;28;19967;-84
2023/08/03 13:42:17;;;;;;;;;;;21.70;64.50;;;;;;4122203;28;19936;-84